Time;durP1;ratioP1;P1;durP2;ratioP2;P2;SDS_P1;SDS_P2;PMS_P1;PMS_P2;Temp;Humidity;BMP_temperature;BMP_pressure;BME280_temperature;BME280_humidity;BME280_pressure;Samples;Min_cycle;Max_cycle;Signal;HPM_P1;HPM_P2
2023/12/22 00:00:48;;;;;;;2.60;1.20;;;6.20;99.90;;;;;;5037927;28;20179;-57
2023/12/22 00:03:15;;;;;;;1.67;1.30;;;6.20;99.90;;;;;;5040918;28;20180;-56
2023/12/22 00:05:41;;;;;;;1.20;0.90;;;6.20;99.90;;;;;;5039938;28;20458;-57
2023/12/22 00:08:06;;;;;;;1.60;1.30;;;6.20;99.90;;;;;;5039048;28;20500;-57
2023/12/22 00:10:32;;;;;;;1.47;1.30;;;6.20;99.90;;;;;;5038618;28;20206;-58
2023/12/22 00:12:57;;;;;;;2.60;1.10;;;6.20;99.90;;;;;;5038656;28;20567;-56
2023/12/22 00:15:23;;;;;;;1.17;1.13;;;6.20;99.90;;;;;;5043181;28;20195;-57
2023/12/22 00:17:49;;;;;;;1.50;1.40;;;6.20;99.90;;;;;;5044033;28;20625;-56
2023/12/22 00:20:15;;;;;;;1.30;1.20;;;6.20;99.90;;;;;;5036980;28;20194;-56
2023/12/22 00:22:40;;;;;;;2.60;1.30;;;6.20;99.90;;;;;;5038741;28;20565;-58
2023/12/22 00:25:07;;;;;;;2.80;1.20;;;6.20;99.90;;;;;;5033641;28;20176;-56
2023/12/22 00:27:33;;;;;;;1.90;1.20;;;6.20;99.90;;;;;;5037127;28;20176;-56
2023/12/22 00:29:59;;;;;;;2.70;1.37;;;6.20;99.90;;;;;;5037323;28;20457;-57
2023/12/22 00:32:25;;;;;;;2.83;1.63;;;6.30;99.90;;;;;;5037915;28;20176;-57
2023/12/22 00:34:50;;;;;;;1.40;1.30;;;6.30;99.90;;;;;;5031975;28;20180;-57
2023/12/22 00:37:16;;;;;;;1.67;1.40;;;6.20;99.90;;;;;;5038402;28;20196;-58
2023/12/22 00:39:41;;;;;;;2.20;1.60;;;6.20;99.90;;;;;;5036184;28;20183;-56
2023/12/22 00:42:07;;;;;;;2.37;1.60;;;6.30;99.90;;;;;;5039007;28;20180;-56
2023/12/22 00:44:33;;;;;;;3.33;1.70;;;6.20;99.90;;;;;;5034741;28;20258;-58
2023/12/22 00:46:58;;;;;;;2.13;1.93;;;6.20;99.90;;;;;;5029931;28;20211;-55
2023/12/22 00:49:24;;;;;;;9.97;2.00;;;6.20;99.90;;;;;;5039256;28;20198;-57
2023/12/22 00:51:49;;;;;;;3.00;1.50;;;6.10;99.90;;;;;;5037039;28;20176;-55
2023/12/22 00:54:15;;;;;;;2.40;1.53;;;6.10;99.90;;;;;;5039115;28;20172;-57
2023/12/22 00:56:41;;;;;;;6.17;1.80;;;6.10;99.90;;;;;;5035182;28;20200;-57
2023/12/22 00:59:06;;;;;;;5.40;2.03;;;6.10;99.90;;;;;;5041607;28;20679;-56
2023/12/22 01:01:32;;;;;;;5.83;1.60;;;6.10;99.90;;;;;;5033509;28;20222;-57
2023/12/22 01:03:57;;;;;;;2.13;1.40;;;6.10;99.90;;;;;;5039031;28;20274;-56
2023/12/22 01:06:23;;;;;;;9.80;1.97;;;6.10;99.90;;;;;;5042848;28;20774;-56
2023/12/22 01:08:49;;;;;;;6.33;1.90;;;6.10;99.90;;;;;;5039553;28;20194;-58
2023/12/22 01:11:16;;;;;;;5.73;1.43;;;6.00;99.90;;;;;;5041051;28;20180;-56
2023/12/22 01:13:43;;;;;;;4.53;1.50;;;6.00;99.90;;;;;;5032188;28;20772;-56
2023/12/22 01:16:08;;;;;;;2.40;1.40;;;5.90;99.90;;;;;;5037816;28;20796;-56
2023/12/22 01:18:34;;;;;;;2.10;1.30;;;5.90;99.90;;;;;;5041372;28;20425;-58
2023/12/22 01:20:59;;;;;;;3.80;1.60;;;5.80;99.90;;;;;;5036891;28;20183;-56
2023/12/22 01:23:25;;;;;;;5.10;1.40;;;5.80;99.90;;;;;;5037870;28;20258;-57
2023/12/22 01:25:51;;;;;;;7.03;1.70;;;5.80;99.90;;;;;;5038532;28;20253;-56
2023/12/22 01:28:17;;;;;;;1.47;1.33;;;5.80;99.90;;;;;;5030662;28;20183;-58
2023/12/22 01:30:42;;;;;;;3.83;1.40;;;5.80;99.90;;;;;;5036778;28;20478;-56
2023/12/22 01:33:08;;;;;;;1.93;1.60;;;5.80;99.90;;;;;;5035811;28;20181;-57
2023/12/22 01:35:33;;;;;;;4.37;1.53;;;5.70;99.90;;;;;;5037827;28;20659;-55
2023/12/22 01:37:59;;;;;;;4.53;1.37;;;5.70;99.90;;;;;;5035378;28;20199;-55
2023/12/22 01:40:25;;;;;;;4.93;1.57;;;5.70;99.90;;;;;;5036538;28;21966;-57
2023/12/22 01:42:50;;;;;;;3.73;1.50;;;5.70;99.90;;;;;;5038921;28;20168;-58
2023/12/22 01:45:16;;;;;;;2.53;1.23;;;5.70;99.90;;;;;;5037330;28;20175;-56
2023/12/22 01:47:42;;;;;;;3.90;1.53;;;5.70;99.90;;;;;;5039030;28;20187;-55
2023/12/22 01:50:10;;;;;;;2.97;1.43;;;5.70;99.90;;;;;;5039259;28;20227;-57
2023/12/22 01:52:37;;;;;;;2.80;1.30;;;5.70;99.90;;;;;;5039056;28;20505;-58
2023/12/22 01:55:05;;;;;;;5.53;1.27;;;5.80;99.90;;;;;;5033937;28;20524;-57
2023/12/22 01:57:31;;;;;;;3.83;1.30;;;5.70;99.90;;;;;;5031685;28;20519;-55
2023/12/22 01:59:57;;;;;;;1.57;1.20;;;5.80;99.90;;;;;;5035714;28;20437;-57
2023/12/22 02:02:22;;;;;;;2.47;1.70;;;5.70;99.90;;;;;;5037571;28;20261;-56
2023/12/22 02:04:49;;;;;;;1.83;1.50;;;5.80;99.90;;;;;;5034741;28;20534;-57
2023/12/22 02:07:15;;;;;;;1.10;1.00;;;5.70;99.90;;;;;;5032206;28;20296;-58
2023/12/22 02:09:40;;;;;;;2.80;1.40;;;5.70;99.90;;;;;;5036605;28;20461;-57
2023/12/22 02:12:06;;;;;;;2.60;1.30;;;5.70;99.90;;;;;;5037971;28;20460;-57
2023/12/22 02:14:32;;;;;;;3.70;1.90;;;5.70;99.90;;;;;;5040266;28;20693;-57
2023/12/22 02:17:11;;;;;;;1.50;1.20;;;5.70;99.90;;;;;;5040090;28;20202;-58
2023/12/22 02:19:45;;;;;;;3.80;1.30;;;5.70;99.90;;;;;;5030526;28;20403;-56
2023/12/22 02:22:12;;;;;;;2.50;1.27;;;5.70;99.90;;;;;;5033901;28;20449;-57
2023/12/22 02:24:38;;;;;;;2.50;1.30;;;5.70;99.90;;;;;;5027330;28;20440;-57
2023/12/22 02:27:13;;;;;;;4.43;1.33;;;5.70;99.90;;;;;;5033599;28;20474;-58
2023/12/22 02:29:54;;;;;;;1.70;1.20;;;5.70;99.90;;;;;;5030754;28;20520;-57
2023/12/22 02:32:24;;;;;;;1.97;1.10;;;5.70;99.90;;;;;;5039385;28;20410;-57
2023/12/22 02:34:54;;;;;;;1.10;0.90;;;5.70;99.90;;;;;;5031584;28;20417;-57
2023/12/22 02:37:21;;;;;;;6.00;1.30;;;5.70;99.90;;;;;;5037178;28;20452;-55
2023/12/22 02:39:47;;;;;;;3.73;1.40;;;5.70;99.90;;;;;;5038401;28;20444;-57
2023/12/22 02:42:13;;;;;;;3.30;1.17;;;5.70;99.90;;;;;;5033896;28;21382;-57
2023/12/22 02:44:39;;;;;;;5.07;1.47;;;5.70;99.90;;;;;;5038313;28;20461;-57
2023/12/22 02:47:04;;;;;;;2.53;1.20;;;5.70;99.90;;;;;;5034109;28;20469;-57
2023/12/22 02:49:30;;;;;;;4.43;1.30;;;5.70;99.90;;;;;;5037853;28;20206;-58
2023/12/22 02:51:55;;;;;;;1.90;1.30;;;5.70;99.90;;;;;;5039672;28;20179;-55
2023/12/22 02:54:21;;;;;;;5.50;1.50;;;5.70;99.90;;;;;;5040144;28;20236;-57
2023/12/22 02:56:47;;;;;;;4.83;1.53;;;5.70;99.90;;;;;;5038069;28;20700;-57
2023/12/22 02:59:13;;;;;;;3.20;1.43;;;5.70;99.90;;;;;;5034069;28;20242;-58
2023/12/22 03:01:38;;;;;;;6.00;1.60;;;5.70;99.90;;;;;;5031886;28;20240;-56
2023/12/22 03:04:04;;;;;;;3.30;1.67;;;5.70;99.90;;;;;;5037221;28;20188;-56
2023/12/22 03:06:29;;;;;;;3.07;1.57;;;5.80;99.90;;;;;;5043942;28;20256;-56
2023/12/22 03:08:55;;;;;;;5.73;1.70;;;5.80;99.90;;;;;;5037551;28;20202;-57
2023/12/22 03:11:20;;;;;;;7.57;1.70;;;5.80;99.90;;;;;;5030235;28;20210;-57
2023/12/22 03:13:46;;;;;;;3.30;1.30;;;5.80;99.90;;;;;;5031349;28;20914;-57
2023/12/22 03:16:12;;;;;;;3.13;1.60;;;5.70;99.90;;;;;;5033983;28;20204;-56
2023/12/22 03:18:40;;;;;;;1.30;1.20;;;5.70;99.90;;;;;;5030999;28;20183;-57
2023/12/22 03:21:06;;;;;;;3.50;1.80;;;5.70;99.90;;;;;;5038295;28;20985;-56
2023/12/22 03:23:31;;;;;;;3.77;1.80;;;5.70;99.90;;;;;;5030370;28;20464;-58
2023/12/22 03:25:57;;;;;;;5.90;1.53;;;5.70;99.90;;;;;;5035921;28;20196;-56
2023/12/22 03:28:22;;;;;;;3.67;1.77;;;5.70;99.90;;;;;;5040414;28;20175;-57
2023/12/22 03:30:48;;;;;;;3.93;1.77;;;5.70;99.90;;;;;;5042776;28;20210;-59
2023/12/22 03:33:14;;;;;;;3.70;1.30;;;5.70;99.90;;;;;;5039743;28;20599;-57
2023/12/22 03:35:39;;;;;;;12.40;2.17;;;5.60;99.90;;;;;;5042344;28;20291;-58
2023/12/22 03:38:05;;;;;;;3.63;1.60;;;5.60;99.90;;;;;;5038141;28;20192;-56
2023/12/22 03:40:30;;;;;;;8.97;1.80;;;5.60;99.90;;;;;;5039380;28;20256;-55
2023/12/22 03:42:56;;;;;;;7.77;1.73;;;5.60;99.90;;;;;;5037061;28;20183;-56
2023/12/22 03:45:21;;;;;;;4.90;1.77;;;5.60;99.90;;;;;;5045745;28;20179;-58
2023/12/22 03:47:47;;;;;;;3.93;1.90;;;5.60;99.90;;;;;;5041908;28;20191;-58
2023/12/22 03:50:13;;;;;;;5.93;1.93;;;5.60;99.90;;;;;;5033566;28;20830;-57
2023/12/22 03:52:38;;;;;;;2.60;1.73;;;5.60;99.90;;;;;;5039156;28;20176;-57
2023/12/22 03:55:04;;;;;;;3.07;1.60;;;5.50;99.90;;;;;;5041946;28;20183;-58
2023/12/22 03:57:30;;;;;;;4.40;1.37;;;5.50;99.90;;;;;;5043505;28;20260;-57
2023/12/22 03:59:55;;;;;;;5.00;1.60;;;5.50;99.90;;;;;;5038473;28;20457;-56
2023/12/22 04:02:22;;;;;;;7.77;2.60;;;5.50;99.90;;;;;;5036013;28;20182;-56
2023/12/22 04:04:47;;;;;;;3.53;1.70;;;5.50;99.90;;;;;;5040186;28;20207;-56
2023/12/22 04:07:13;;;;;;;8.40;1.87;;;5.50;99.90;;;;;;5036817;28;20992;-60
2023/12/22 04:09:38;;;;;;;7.83;1.90;;;5.40;99.90;;;;;;5034790;28;20196;-56
2023/12/22 04:12:05;;;;;;;2.77;1.83;;;5.30;99.90;;;;;;5053689;28;20186;-57
2023/12/22 04:14:30;;;;;;;8.00;2.10;;;5.30;99.90;;;;;;5040600;28;20171;-56
2023/12/22 04:16:57;;;;;;;8.70;2.00;;;5.30;99.90;;;;;;5037561;28;20509;-56
2023/12/22 04:19:22;;;;;;;6.83;2.67;;;5.30;99.90;;;;;;5037134;28;20239;-56
2023/12/22 04:21:48;;;;;;;3.47;1.50;;;5.20;99.90;;;;;;5040363;28;20518;-56
2023/12/22 04:24:14;;;;;;;5.03;1.73;;;5.20;99.90;;;;;;5037371;28;20210;-57
2023/12/22 04:26:39;;;;;;;4.20;1.67;;;5.20;99.90;;;;;;5044205;28;20307;-56
2023/12/22 04:29:05;;;;;;;7.10;1.90;;;5.20;99.90;;;;;;5039595;28;20458;-58
2023/12/22 04:31:31;;;;;;;5.10;1.47;;;5.30;99.90;;;;;;5036370;28;20164;-57
2023/12/22 04:33:56;;;;;;;4.37;2.13;;;5.40;99.90;;;;;;5038283;28;20180;-57
2023/12/22 04:36:22;;;;;;;4.70;1.90;;;5.50;99.90;;;;;;5044180;28;20199;-56
2023/12/22 04:38:47;;;;;;;7.83;2.20;;;5.50;99.90;;;;;;5038305;28;20229;-57
2023/12/22 04:41:13;;;;;;;6.57;1.93;;;5.50;99.90;;;;;;5035567;28;20257;-57
2023/12/22 04:43:39;;;;;;;6.03;1.53;;;5.50;99.90;;;;;;5033829;28;20827;-57
2023/12/22 04:46:04;;;;;;;8.97;2.40;;;5.50;99.90;;;;;;5029312;28;20191;-62
2023/12/22 04:48:30;;;;;;;3.77;1.97;;;5.50;99.90;;;;;;5036716;28;20237;-58
2023/12/22 04:50:55;;;;;;;4.60;1.77;;;5.50;99.90;;;;;;5033200;28;20206;-56
2023/12/22 04:53:21;;;;;;;9.57;2.60;;;5.40;99.90;;;;;;5033618;28;20248;-57
2023/12/22 04:55:46;;;;;;;6.80;2.67;;;5.40;99.90;;;;;;5035548;28;20666;-55
2023/12/22 04:58:12;;;;;;;5.37;1.70;;;5.40;99.90;;;;;;5038404;28;20194;-57
2023/12/22 05:00:38;;;;;;;7.03;1.97;;;5.40;99.90;;;;;;5026656;28;20179;-56
2023/12/22 05:03:04;;;;;;;3.17;1.90;;;5.50;99.90;;;;;;5028493;28;20869;-54
2023/12/22 05:05:29;;;;;;;8.47;2.07;;;5.40;99.90;;;;;;5034538;28;20429;-55
2023/12/22 05:07:55;;;;;;;5.03;2.10;;;5.40;99.90;;;;;;5027728;28;20197;-58
2023/12/22 05:10:20;;;;;;;5.10;2.17;;;5.40;99.90;;;;;;5029704;28;20755;-58
2023/12/22 05:12:46;;;;;;;4.90;2.63;;;5.40;99.90;;;;;;5035020;28;20171;-58
2023/12/22 05:15:11;;;;;;;5.83;2.00;;;5.40;99.90;;;;;;5033972;28;20194;-57
2023/12/22 05:17:37;;;;;;;7.10;1.77;;;5.50;99.90;;;;;;5032199;28;20176;-57
2023/12/22 05:20:03;;;;;;;5.50;1.80;;;5.50;99.90;;;;;;5032968;28;20184;-58
2023/12/22 05:22:31;;;;;;;4.93;1.90;;;5.50;99.90;;;;;;5030570;28;20179;-57
2023/12/22 05:24:58;;;;;;;3.33;1.80;;;5.50;99.90;;;;;;5030175;28;20480;-58
2023/12/22 05:27:24;;;;;;;12.33;2.47;;;5.50;99.90;;;;;;5036633;28;20442;-57
2023/12/22 05:29:50;;;;;;;6.80;1.70;;;5.50;99.90;;;;;;5029951;28;20454;-58
2023/12/22 05:32:15;;;;;;;2.33;1.70;;;5.50;99.90;;;;;;5029378;28;20225;-58
2023/12/22 05:34:41;;;;;;;8.63;2.17;;;5.50;99.90;;;;;;5033792;28;20843;-59
2023/12/22 05:37:06;;;;;;;5.00;1.60;;;5.50;99.90;;;;;;5024955;28;20207;-52
2023/12/22 05:39:32;;;;;;;5.20;2.37;;;5.50;99.90;;;;;;5041277;28;20184;-56
2023/12/22 05:41:58;;;;;;;4.80;1.63;;;5.40;99.90;;;;;;5033775;28;20182;-54
2023/12/22 05:44:24;;;;;;;6.00;1.83;;;5.40;99.90;;;;;;5028235;28;20246;-55
2023/12/22 05:46:50;;;;;;;4.00;1.73;;;5.40;99.90;;;;;;5035683;28;20195;-55
2023/12/22 05:49:16;;;;;;;3.53;2.03;;;5.40;99.90;;;;;;5032305;28;20976;-58
2023/12/22 05:51:41;;;;;;;4.80;1.60;;;5.40;99.90;;;;;;5036855;28;20489;-58
2023/12/22 05:54:08;;;;;;;6.50;2.00;;;5.40;99.90;;;;;;5033253;28;20254;-56
2023/12/22 05:56:34;;;;;;;2.70;1.73;;;5.40;99.90;;;;;;5035810;28;20202;-57
2023/12/22 05:59:00;;;;;;;6.93;2.10;;;5.30;99.90;;;;;;5033563;28;20430;-59
2023/12/22 06:01:25;;;;;;;13.00;2.27;;;5.30;99.90;;;;;;5029529;28;20171;-60
2023/12/22 06:03:51;;;;;;;7.77;2.10;;;5.30;99.90;;;;;;5039700;28;20577;-58
2023/12/22 06:06:18;;;;;;;6.10;2.17;;;5.30;99.90;;;;;;5030399;28;20223;-57
2023/12/22 06:08:44;;;;;;;4.80;1.77;;;5.30;99.90;;;;;;5030277;28;20450;-58
2023/12/22 06:11:09;;;;;;;11.20;2.17;;;5.30;99.90;;;;;;5035034;28;20997;-57
2023/12/22 06:13:35;;;;;;;6.87;1.93;;;5.30;99.90;;;;;;5031668;28;20197;-59
2023/12/22 06:16:01;;;;;;;7.20;1.90;;;5.30;99.90;;;;;;5042846;28;20229;-57
2023/12/22 06:18:26;;;;;;;5.10;1.93;;;5.40;99.90;;;;;;5036854;28;20649;-59
2023/12/22 06:20:52;;;;;;;8.80;2.00;;;5.30;99.90;;;;;;5033352;28;20180;-58
2023/12/22 06:23:18;;;;;;;7.87;2.40;;;5.30;99.90;;;;;;5040422;28;20273;-57
2023/12/22 06:25:46;;;;;;;9.33;2.43;;;5.30;99.90;;;;;;5040048;28;20438;-59
2023/12/22 06:28:12;;;;;;;5.07;1.97;;;5.30;99.90;;;;;;5040913;28;21062;-58
2023/12/22 06:30:38;;;;;;;12.40;2.60;;;5.30;99.90;;;;;;5032056;28;20550;-56
2023/12/22 06:33:03;;;;;;;8.20;2.10;;;5.30;99.90;;;;;;5035883;28;20522;-56
2023/12/22 06:35:31;;;;;;;10.03;1.90;;;5.30;99.90;;;;;;5036203;28;20741;-58
2023/12/22 06:38:01;;;;;;;10.90;1.57;;;5.30;99.90;;;;;;5039660;28;20975;-58
2023/12/22 06:40:26;;;;;;;3.73;1.67;;;5.40;99.90;;;;;;5041784;28;20940;-58
2023/12/22 06:42:52;;;;;;;4.87;2.03;;;5.30;99.90;;;;;;5027640;28;20522;-57
2023/12/22 06:45:17;;;;;;;2.50;1.60;;;5.30;99.90;;;;;;5040687;28;20180;-56
2023/12/22 06:47:43;;;;;;;3.23;2.17;;;5.30;99.90;;;;;;5043204;28;20257;-58
2023/12/22 06:50:09;;;;;;;6.23;2.07;;;5.30;99.90;;;;;;5039680;28;20204;-58
2023/12/22 06:52:34;;;;;;;2.23;1.50;;;5.30;99.90;;;;;;5037416;28;20217;-55
2023/12/22 06:55:00;;;;;;;7.37;2.30;;;5.30;99.90;;;;;;5035668;28;20210;-59
2023/12/22 06:57:25;;;;;;;3.80;2.43;;;5.30;99.90;;;;;;5036004;28;20187;-58
2023/12/22 06:59:51;;;;;;;10.23;2.03;;;5.20;99.90;;;;;;5040953;28;20653;-59
2023/12/22 07:02:16;;;;;;;3.20;1.63;;;5.30;99.90;;;;;;5046227;28;20463;-56
2023/12/22 07:05:07;;;;;;;3.47;1.57;;;5.30;99.90;;;;;;5045816;28;20183;-57
2023/12/22 07:07:33;;;;;;;7.67;2.00;;;5.30;99.90;;;;;;5038526;28;20264;-56
2023/12/22 07:09:58;;;;;;;6.07;1.63;;;5.30;99.90;;;;;;5043189;28;20875;-57
2023/12/22 07:12:24;;;;;;;5.97;2.50;;;5.20;99.90;;;;;;5048428;28;20250;-58
2023/12/22 07:14:49;;;;;;;8.00;3.20;;;5.20;99.90;;;;;;5047346;28;20649;-58
2023/12/22 07:17:15;;;;;;;5.67;1.87;;;5.20;99.90;;;;;;5038997;28;20202;-58
2023/12/22 07:19:41;;;;;;;6.60;2.20;;;5.20;99.90;;;;;;5036294;28;20248;-57
2023/12/22 07:22:07;;;;;;;4.57;1.80;;;5.20;99.90;;;;;;5043009;28;20180;-57
2023/12/22 07:24:32;;;;;;;5.10;1.90;;;5.20;99.90;;;;;;5044487;28;20233;-58
2023/12/22 07:26:58;;;;;;;9.07;2.00;;;5.10;99.90;;;;;;5040543;28;20235;-58
2023/12/22 07:29:23;;;;;;;12.63;2.00;;;5.20;99.90;;;;;;5037066;28;20195;-58
2023/12/22 07:31:49;;;;;;;5.90;2.27;;;5.20;99.90;;;;;;5042547;28;20179;-58
2023/12/22 07:34:15;;;;;;;5.70;1.90;;;5.20;99.90;;;;;;5045529;28;20202;-58
2023/12/22 07:36:40;;;;;;;3.77;2.10;;;5.20;99.90;;;;;;5037310;28;20678;-57
2023/12/22 07:39:06;;;;;;;4.20;1.97;;;5.20;99.90;;;;;;5034163;28;20315;-57
2023/12/22 07:41:32;;;;;;;5.77;2.20;;;5.20;99.90;;;;;;5039039;28;20759;-56
2023/12/22 07:43:58;;;;;;;4.70;1.70;;;5.20;99.90;;;;;;5041772;28;20488;-57
2023/12/22 07:46:24;;;;;;;9.13;2.00;;;5.20;99.90;;;;;;5043107;28;21022;-57
2023/12/22 07:48:50;;;;;;;4.20;1.60;;;5.20;99.90;;;;;;5042557;28;20181;-57
2023/12/22 07:51:16;;;;;;;3.90;1.83;;;5.20;99.90;;;;;;5037705;28;20719;-58
2023/12/22 07:53:41;;;;;;;5.57;1.77;;;5.20;99.90;;;;;;5036456;28;20437;-58
2023/12/22 07:56:08;;;;;;;4.70;1.57;;;5.20;99.90;;;;;;5037716;28;20200;-58
2023/12/22 07:58:33;;;;;;;2.87;1.60;;;5.20;99.90;;;;;;5038957;28;20182;-57
2023/12/22 08:00:59;;;;;;;4.73;1.70;;;5.20;99.90;;;;;;5037657;28;20488;-58
2023/12/22 08:03:24;;;;;;;5.10;2.00;;;5.20;99.90;;;;;;5044044;28;20267;-57
2023/12/22 08:05:50;;;;;;;6.67;2.37;;;5.20;99.90;;;;;;5034233;28;20203;-57
2023/12/22 08:08:15;;;;;;;6.30;3.10;;;5.30;99.90;;;;;;5045703;28;20571;-56
2023/12/22 08:10:41;;;;;;;7.07;2.40;;;5.20;99.90;;;;;;5046705;28;20203;-57
2023/12/22 08:13:07;;;;;;;4.93;1.93;;;5.20;99.90;;;;;;5036933;28;20182;-56
2023/12/22 08:15:32;;;;;;;6.57;2.60;;;5.30;99.90;;;;;;5034376;28;20217;-57
2023/12/22 08:17:58;;;;;;;4.57;1.70;;;5.30;99.90;;;;;;5040900;28;20187;-58
2023/12/22 08:20:23;;;;;;;8.00;2.00;;;5.30;99.90;;;;;;5043298;28;20168;-58
2023/12/22 08:22:50;;;;;;;8.70;2.50;;;5.30;99.90;;;;;;5048160;28;20275;-56
2023/12/22 08:25:19;;;;;;;6.90;1.77;;;5.30;99.90;;;;;;5041521;28;20545;-57
2023/12/22 08:27:45;;;;;;;3.10;1.40;;;5.30;99.90;;;;;;5038486;28;20442;-57
2023/12/22 08:30:11;;;;;;;6.20;1.90;;;5.40;99.90;;;;;;5035510;28;20842;-56
2023/12/22 08:32:37;;;;;;;3.80;1.60;;;5.40;99.90;;;;;;5038743;28;20411;-58
2023/12/22 08:35:06;;;;;;;4.10;1.77;;;5.40;99.90;;;;;;5035618;28;20463;-57
2023/12/22 08:37:32;;;;;;;4.80;1.50;;;5.40;99.90;;;;;;5038728;28;20193;-58
2023/12/22 08:39:58;;;;;;;2.60;1.80;;;5.40;99.90;;;;;;5041181;28;20441;-58
2023/12/22 08:42:28;;;;;;;4.73;2.10;;;5.40;99.90;;;;;;5041684;28;20262;-57
2023/12/22 08:44:54;;;;;;;3.00;1.30;;;5.40;99.90;;;;;;5032252;28;20549;-59
2023/12/22 08:47:20;;;;;;;5.40;1.40;;;5.40;99.90;;;;;;5035867;28;20815;-58
2023/12/22 08:49:45;;;;;;;6.50;1.50;;;5.40;99.90;;;;;;5036545;28;20460;-56
2023/12/22 08:52:11;;;;;;;5.57;1.43;;;5.40;99.90;;;;;;5036834;28;20275;-58
2023/12/22 08:54:37;;;;;;;2.20;1.10;;;5.40;99.90;;;;;;5039394;28;20176;-58
2023/12/22 08:57:03;;;;;;;1.90;1.30;;;5.40;99.90;;;;;;5035055;28;20198;-59
2023/12/22 08:59:28;;;;;;;2.10;1.20;;;5.40;99.90;;;;;;5032836;28;20176;-58
2023/12/22 09:01:54;;;;;;;2.50;1.40;;;5.50;99.90;;;;;;5038415;28;20430;-57
2023/12/22 09:04:22;;;;;;;2.07;1.40;;;5.50;99.90;;;;;;5045049;28;20685;-57
2023/12/22 09:06:48;;;;;;;3.40;1.60;;;5.50;99.90;;;;;;5033260;28;20206;-57
2023/12/22 09:09:14;;;;;;;2.63;1.00;;;5.50;99.90;;;;;;5036849;28;20781;-58
2023/12/22 09:11:39;;;;;;;2.80;1.40;;;5.50;99.90;;;;;;5041974;28;20429;-58
2023/12/22 09:14:09;;;;;;;1.73;1.50;;;5.50;99.90;;;;;;5042658;28;20171;-58
2023/12/22 09:16:35;;;;;;;2.50;1.30;;;5.50;99.90;;;;;;5046742;28;20195;-57
2023/12/22 09:19:01;;;;;;;6.20;1.20;;;5.60;99.90;;;;;;5042305;28;20429;-59
2023/12/22 09:21:27;;;;;;;3.03;1.50;;;5.60;99.90;;;;;;5037935;28;20426;-58
2023/12/22 09:23:53;;;;;;;2.97;1.40;;;5.60;99.90;;;;;;5043157;28;20183;-56
2023/12/22 09:26:18;;;;;;;1.60;1.20;;;5.60;99.90;;;;;;5043030;28;20230;-57
2023/12/22 09:28:44;;;;;;;2.60;1.20;;;5.50;99.90;;;;;;5035106;28;20974;-57
2023/12/22 09:31:10;;;;;;;4.20;1.13;;;5.50;99.90;;;;;;5034007;28;20203;-58
2023/12/22 09:33:36;;;;;;;2.97;1.60;;;5.60;99.90;;;;;;5039413;28;20673;-58
2023/12/22 09:36:02;;;;;;;2.70;1.37;;;5.60;99.90;;;;;;5033851;28;20459;-58
2023/12/22 09:38:29;;;;;;;2.63;1.13;;;5.60;99.90;;;;;;5035978;28;20876;-58
2023/12/22 09:40:56;;;;;;;1.73;1.20;;;5.60;99.90;;;;;;5038427;28;20460;-57
2023/12/22 09:43:21;;;;;;;10.63;1.53;;;5.60;99.90;;;;;;5041630;28;20448;-57
2023/12/22 09:45:49;;;;;;;1.73;1.40;;;5.60;99.90;;;;;;5041093;28;20481;-58
2023/12/22 09:48:17;;;;;;;1.77;1.10;;;5.60;99.90;;;;;;5045506;28;20190;-58
2023/12/22 09:50:44;;;;;;;4.77;1.63;;;5.70;99.90;;;;;;5035844;28;20501;-57
2023/12/22 09:53:12;;;;;;;2.20;1.23;;;5.70;99.90;;;;;;5037368;28;20413;-58
2023/12/22 09:55:44;;;;;;;4.17;1.47;;;5.80;99.90;;;;;;5040465;28;20995;-57
2023/12/22 09:58:10;;;;;;;1.47;1.30;;;5.80;99.90;;;;;;5037343;28;22131;-57
2023/12/22 10:00:37;;;;;;;2.13;1.43;;;5.80;99.90;;;;;;5038315;28;20884;-60
2023/12/22 10:03:06;;;;;;;3.10;1.50;;;5.80;99.90;;;;;;5032168;28;20510;-59
2023/12/22 10:05:32;;;;;;;2.53;1.40;;;5.90;99.90;;;;;;5036712;28;20896;-58
2023/12/22 10:08:00;;;;;;;4.47;1.67;;;5.90;99.90;;;;;;5035914;28;20465;-59
2023/12/22 10:10:29;;;;;;;2.30;1.20;;;6.00;99.90;;;;;;5044600;28;20256;-58
2023/12/22 10:12:54;;;;;;;5.90;1.40;;;6.00;99.90;;;;;;5031276;28;20414;-59
2023/12/22 10:15:23;;;;;;;3.97;1.63;;;6.00;99.90;;;;;;5035130;28;20972;-59
2023/12/22 10:17:50;;;;;;;2.30;1.37;;;6.00;99.90;;;;;;5032888;28;20645;-58
2023/12/22 10:20:16;;;;;;;3.20;1.57;;;6.00;99.90;;;;;;5043045;28;20428;-59
2023/12/22 10:22:42;;;;;;;6.00;1.50;;;6.00;99.90;;;;;;5034752;28;20426;-60
2023/12/22 10:25:08;;;;;;;4.53;1.40;;;6.00;99.90;;;;;;5030784;28;20179;-59
2023/12/22 10:27:36;;;;;;;9.80;1.80;;;6.00;99.90;;;;;;5045530;28;20194;-60
2023/12/22 10:30:03;;;;;;;3.27;1.40;;;6.00;99.90;;;;;;5037577;28;20443;-59
2023/12/22 10:32:29;;;;;;;1.87;1.60;;;6.00;99.90;;;;;;5038112;28;20476;-59
2023/12/22 10:34:59;;;;;;;5.13;1.43;;;6.00;99.90;;;;;;5031707;28;20960;-60
2023/12/22 10:37:25;;;;;;;9.00;2.20;;;6.00;99.90;;;;;;5042487;28;20191;-59
2023/12/22 10:39:54;;;;;;;4.00;2.17;;;6.00;99.90;;;;;;5037450;28;20856;-60
2023/12/22 10:42:20;;;;;;;8.40;2.00;;;6.00;99.90;;;;;;5033477;28;20430;-59
2023/12/22 10:44:47;;;;;;;4.73;2.50;;;6.00;99.90;;;;;;5030468;28;20429;-58
2023/12/22 10:47:13;;;;;;;5.33;1.90;;;6.00;99.90;;;;;;5033101;28;20430;-59
2023/12/22 10:49:39;;;;;;;5.47;2.10;;;6.00;99.90;;;;;;5036182;28;20453;-59
2023/12/22 10:52:05;;;;;;;6.30;1.87;;;6.00;99.90;;;;;;5031040;28;20225;-58
2023/12/22 10:54:31;;;;;;;3.30;2.00;;;6.00;99.90;;;;;;5033998;28;20960;-58
2023/12/22 10:57:00;;;;;;;5.93;2.07;;;6.00;99.90;;;;;;5031496;28;20210;-58
2023/12/22 10:59:32;;;;;;;6.27;2.07;;;6.00;99.90;;;;;;5037187;28;20180;-60
2023/12/22 11:01:58;;;;;;;7.60;2.23;;;6.00;99.90;;;;;;5029555;28;20795;-60
2023/12/22 11:04:31;;;;;;;6.70;2.50;;;6.00;99.90;;;;;;5039241;28;20425;-60
2023/12/22 11:06:59;;;;;;;9.33;4.00;;;6.00;99.90;;;;;;5037531;28;20449;-59
2023/12/22 11:09:31;;;;;;;10.87;3.50;;;6.10;99.90;;;;;;5032966;28;20480;-58
2023/12/22 11:11:57;;;;;;;11.67;3.37;;;6.10;99.90;;;;;;5033806;28;20411;-58
2023/12/22 11:14:25;;;;;;;5.03;2.37;;;6.10;99.90;;;;;;5032136;28;20952;-58
2023/12/22 11:16:53;;;;;;;7.30;2.20;;;6.10;99.90;;;;;;5037505;28;20449;-58
2023/12/22 11:19:20;;;;;;;3.40;2.20;;;6.10;99.90;;;;;;5039400;28;20429;-59
2023/12/22 11:21:48;;;;;;;7.80;2.27;;;6.10;99.90;;;;;;5034932;28;20416;-58
2023/12/22 11:24:15;;;;;;;6.23;2.83;;;6.00;99.90;;;;;;5032155;28;20427;-58
2023/12/22 11:26:47;;;;;;;7.63;2.37;;;6.00;99.90;;;;;;5033977;28;20445;-60
2023/12/22 11:29:14;;;;;;;3.53;2.00;;;6.00;99.90;;;;;;5040271;28;21023;-59
2023/12/22 11:31:41;;;;;;;5.03;2.20;;;6.00;99.90;;;;;;5034160;28;20464;-59
2023/12/22 11:34:07;;;;;;;7.70;2.70;;;6.00;99.90;;;;;;5030384;28;20446;-58
2023/12/22 11:36:34;;;;;;;7.50;3.10;;;6.00;99.90;;;;;;5038707;28;20449;-59
2023/12/22 11:38:59;;;;;;;9.47;2.07;;;6.00;99.90;;;;;;5040625;28;20449;-59
2023/12/22 11:41:29;;;;;;;7.27;2.63;;;6.10;99.90;;;;;;5032553;28;20966;-59
2023/12/22 11:43:57;;;;;;;3.00;2.07;;;6.10;99.90;;;;;;5032674;28;20175;-59
2023/12/22 11:46:23;;;;;;;7.20;2.73;;;6.10;99.90;;;;;;5041840;28;20947;-58
2023/12/22 11:48:53;;;;;;;13.00;2.87;;;6.10;99.90;;;;;;5044566;28;20437;-58
2023/12/22 11:51:20;;;;;;;6.73;2.60;;;6.10;99.90;;;;;;5039880;28;20473;-58
2023/12/22 11:53:46;;;;;;;12.77;2.40;;;6.20;99.90;;;;;;5043609;28;20425;-58
2023/12/22 11:56:13;;;;;;;5.13;2.20;;;6.10;99.90;;;;;;5039419;28;20446;-58
2023/12/22 11:58:51;;;;;;;8.27;2.40;;;6.20;99.90;;;;;;5036595;28;20172;-59
2023/12/22 12:01:18;;;;;;;5.60;2.90;;;6.20;99.90;;;;;;5033697;28;20480;-58
2023/12/22 12:03:51;;;;;;;6.03;2.90;;;6.10;99.90;;;;;;5037076;28;20410;-59
2023/12/22 12:06:25;;;;;;;5.67;2.93;;;6.20;99.90;;;;;;5046441;28;20823;-60
2023/12/22 12:08:51;;;;;;;6.60;2.20;;;6.20;99.90;;;;;;5041437;28;20526;-57
2023/12/22 12:11:18;;;;;;;3.47;1.80;;;6.20;99.90;;;;;;5037360;28;20473;-60
2023/12/22 12:13:45;;;;;;;2.20;1.30;;;6.20;99.90;;;;;;5041326;28;20422;-59
2023/12/22 12:16:13;;;;;;;1.20;1.10;;;6.30;99.90;;;;;;5040423;28;20446;-59
2023/12/22 12:18:39;;;;;;;3.57;1.50;;;6.30;99.90;;;;;;5036605;28;20409;-59
2023/12/22 12:21:09;;;;;;;2.73;1.43;;;6.30;99.90;;;;;;5044122;28;20505;-58
2023/12/22 12:23:36;;;;;;;7.33;1.90;;;6.30;99.90;;;;;;5040814;28;20434;-57
2023/12/22 12:26:02;;;;;;;1.37;1.20;;;6.30;99.90;;;;;;5035229;28;20445;-61
2023/12/22 12:28:32;;;;;;;2.23;1.00;;;6.30;99.90;;;;;;5037459;28;20428;-59
2023/12/22 12:30:59;;;;;;;1.00;1.00;;;6.30;99.90;;;;;;5038840;28;21055;-59
2023/12/22 12:33:26;;;;;;;1.50;1.20;;;6.30;99.90;;;;;;5035124;28;20433;-59
2023/12/22 12:35:53;;;;;;;1.17;1.07;;;6.30;99.90;;;;;;5030851;28;20458;-60
2023/12/22 12:38:23;;;;;;;1.33;0.97;;;6.30;99.90;;;;;;5031241;28;20443;-58
2023/12/22 12:40:51;;;;;;;0.87;0.87;;;6.30;99.90;;;;;;5055044;28;20430;-61
2023/12/22 12:43:18;;;;;;;1.20;1.10;;;6.30;99.90;;;;;;5041454;28;20827;-61
2023/12/22 12:45:44;;;;;;;1.27;1.17;;;6.30;99.90;;;;;;5039403;28;20476;-58
2023/12/22 12:48:10;;;;;;;3.60;1.30;;;6.30;99.90;;;;;;5033022;28;20438;-58
2023/12/22 12:50:36;;;;;;;1.20;1.10;;;6.30;99.90;;;;;;5041025;28;20466;-57
2023/12/22 12:53:02;;;;;;;0.93;0.90;;;6.30;99.90;;;;;;5040775;28;20199;-57